Terminal Aerodrome Forecast
Issued by NWS Des Moines, IA

Home | Current Version | Previous Version | Text Only | Print | Product List | Glossary On
Versions: 1 2 3 4 5 6 7 8 9 10 11 12 13 14 15 16 17 18
000
FTUS43 KDMX 300530
TAFALO
TAF
KALO 300530Z 3006/3106 28007KT P6SM SCT090
     FM301700 29012G18KT P6SM VCSH BKN060
     FM310000 31010KT P6SM SCT060=

USA.gov is the U.S. government's official web portal to all federal, state and local government web resources and services.